Hanjin Madrid — DHQS — position and weather

sailwx.info

Track history (hours):
 
Tides and Currents Weather Stations Pressure Air Temp Water Temp Dewpoint Dewpoint Depression Visibility Wind Speed Wind Dir Waves Ship Positions

Hanjin Madrid

Last reported at 2014-Jul-23 04:33 UTC. Time now 2014-Jul-29 08:47 UTC.
Position N 32°02' W 080°55'.

Length 278.9 m; beam 40.3 m; draft 14 m.

Type: Ship. MMSI: 211424430.

Date/timePositionNaut miles runAvg speedWind from/ knotsBaromVisibWave heightAir tempDewpointWater temp
2014-Jul-23 04:33N 32°02' W 080°55'9 8.8
2014-Jul-23 03:33N 32°05' W 081°05'4 3.4
2014-Jul-23 02:27N 32°08' W 081°08'0 0.0
2014-Jul-23 01:32N 32°08' W 081°08'0 0.0
2014-Jul-23 00:29N 32°08' W 081°08'0 0.0
2014-Jul-22 23:05N 32°08' W 081°08'0 0.0
2014-Jul-22 22:32N 32°08' W 081°08'0 0.0
2014-Jul-22 21:21N 32°08' W 081°08'0 0.0
2014-Jul-22 13:27N 32°08' W 081°08'0 0.0
2014-Jul-22 09:15N 32°08' W 081°08'0 0.0
2014-Jul-22 08:32N 32°08' W 081°08'0 0.0
2014-Jul-22 06:15N 32°08' W 081°08'0 0.0
2014-Jul-22 05:33N 32°08' W 081°08'0 0.0
2014-Jul-22 04:09N 32°08' W 081°08'0 0.0
2014-Jul-22 02:31N 32°08' W 081°08'0 0.0
2014-Jul-22 01:28N 32°08' W 081°08'0 0.0
2014-Jul-21 23:07N 32°08' W 081°08'0 0.0
2014-Jul-21 22:31N 32°08' W 081°08'0 0.0
2014-Jul-21 21:13N 32°08' W 081°08'0 0.0
2014-Jul-21 20:13N 32°08' W 081°08'0 0.5
2014-Jul-21 19:33N 32°07' W 081°08'5 5.3
2014-Jul-21 18:33N 32°05' W 081°03'9 9.1
2014-Jul-21 17:33N 32°02' W 080°52'38210.0
2014-Jul-20 03:27N 36°41' W 075°36'1212.9
2014-Jul-20 02:29N 36°49' W 075°48'1312.8
2014-Jul-20 01:29N 36°57' W 076°00'1515.8
2014-Jul-20 00:33N 36°60' W 076°18'7 7.1
2014-Jul-19 23:33N 36°53' W 076°21'0 0.0
2014-Jul-19 22:29N 36°53' W 076°21'0 0.0
2014-Jul-19 21:17N 36°53' W 076°21'0 0.0
2014-Jul-19 20:26N 36°53' W 076°21'0 0.0
2014-Jul-19 17:05N 36°53' W 076°21'0 0.0
2014-Jul-19 14:23N 36°53' W 076°21'0 0.0
2014-Jul-19 11:23N 36°53' W 076°21'0 0.0
2014-Jul-19 10:33N 36°53' W 076°21'5 5.4
2014-Jul-19 09:33N 36°58' W 076°20'9 9.1
2014-Jul-19 08:33N 36°59' W 076°09'10 9.6
2014-Jul-19 07:33N 36°56' W 075°57'9 9.1
2014-Jul-19 06:33N 36°51' W 075°48'40 2.0
2014-Jul-18 10:33N 37°08' W 075°03'7311.3
2014-Jul-18 04:04N 38°14' W 074°23'913.2
2014-Jul-18 03:23N 38°22' W 074°17'1113.5
2014-Jul-18 02:33N 38°31' W 074°08'1413.9
2014-Jul-18 01:33N 38°43' W 073°60'1413.6
2014-Jul-18 00:34N 38°57' W 073°58'1413.8
2014-Jul-17 23:33N 39°10' W 073°56'1312.9
2014-Jul-17 22:33N 39°23' W 073°54'1313.0
2014-Jul-17 21:33N 39°36' W 073°53'1313.0
2014-Jul-17 20:33N 39°49' W 073°52'1312.9
2014-Jul-17 19:33N 40°02' W 073°50'1313.0
2014-Jul-17 18:33N 40°15' W 073°49'1212.1
2014-Jul-17 17:33N 40°27' W 073°50'1414.2
2014-Jul-17 16:33N 40°37' W 074°03'5 5.0
2014-Jul-17 15:33N 40°39' W 074°09'1 1.4
2014-Jul-17 14:32N 40°41' W 074°09'0 0.0
2014-Jul-17 13:32N 40°41' W 074°09'0 0.0
2014-Jul-17 12:32N 40°41' W 074°09'0 0.0
2014-Jul-17 11:32N 40°41' W 074°09'0 0.0
2014-Jul-17 10:32N 40°41' W 074°09'0 0.0
2014-Jul-17 09:32N 40°41' W 074°09'0 0.0
2014-Jul-17 08:32N 40°41' W 074°09'0 0.0
2014-Jul-17 07:32N 40°41' W 074°09'0 0.0
2014-Jul-17 06:32N 40°41' W 074°09'0 0.0
2014-Jul-17 05:32N 40°41' W 074°09'0 0.0
2014-Jul-17 04:32N 40°41' W 074°09'0 0.0
2014-Jul-17 03:32N 40°41' W 074°09'0 0.0
2014-Jul-17 02:32N 40°41' W 074°09'0 0.0
2014-Jul-17 01:32N 40°41' W 074°09'0 0.0
2014-Jul-17 00:32N 40°41' W 074°09'0 0.0
2014-Jul-16 23:32N 40°41' W 074°09'0 0.0
2014-Jul-16 22:32N 40°41' W 074°09'0 0.0
2014-Jul-16 21:29N 40°41' W 074°09'0 0.0
2014-Jul-16 20:32N 40°41' W 074°09'0 0.0
2014-Jul-16 19:29N 40°41' W 074°09'0 0.0
2014-Jul-16 18:32N 40°41' W 074°09'0 0.0
2014-Jul-16 17:32N 40°41' W 074°09'0 0.0
2014-Jul-16 16:32N 40°41' W 074°09'0 0.0
2014-Jul-16 15:33N 40°41' W 074°09'1 0.6
2014-Jul-16 14:31N 40°40' W 074°09'0 0.0
2014-Jul-16 13:31N 40°40' W 074°09'0 0.0
2014-Jul-16 12:28N 40°40' W 074°09'0 0.0
2014-Jul-16 11:28N 40°40' W 074°09'0 0.0
2014-Jul-16 10:31N 40°40' W 074°09'0 0.0
2014-Jul-16 09:31N 40°40' W 074°09'0 0.0
2014-Jul-16 08:28N 40°40' W 074°09'0 0.0
2014-Jul-16 07:31N 40°40' W 074°09'0 0.0
2014-Jul-16 06:28N 40°40' W 074°09'0 0.0
2014-Jul-16 05:31N 40°40' W 074°09'0 0.0
2014-Jul-16 04:31N 40°40' W 074°09'0 0.0
2014-Jul-16 03:31N 40°40' W 074°09'0 0.0
2014-Jul-16 02:31N 40°40' W 074°09'0 0.0
2014-Jul-16 01:31N 40°40' W 074°09'0 0.0
2014-Jul-16 00:31N 40°40' W 074°09'0 0.0
2014-Jul-15 23:31N 40°40' W 074°09'0 0.0
2014-Jul-15 22:31N 40°40' W 074°09'0 0.0
2014-Jul-15 21:31N 40°40' W 074°09'0 0.0
2014-Jul-15 20:31N 40°40' W 074°09'0 0.0
2014-Jul-15 19:31N 40°40' W 074°09'0 0.0
2014-Jul-15 18:31N 40°40' W 074°09'0 0.0
2014-Jul-15 17:31N 40°40' W 074°09'0 0.0
2014-Jul-15 16:31N 40°40' W 074°09'0 0.0
2014-Jul-15 15:31N 40°40' W 074°09'0 0.0
2014-Jul-15 14:31N 40°40' W 074°09'0 0.0
2014-Jul-15 13:31N 40°40' W 074°09'0 0.0
2014-Jul-15 12:31N 40°40' W 074°09'0 0.0
2014-Jul-15 11:28N 40°40' W 074°09'2 1.8
2014-Jul-15 10:33N 40°39' W 074°08'7 6.9
2014-Jul-15 09:34N 40°34' W 074°02'1212.4
2014-Jul-15 08:33N 40°27' W 073°48'7 6.8
2014-Jul-15 07:34N 40°23' W 073°41'6 6.3
2014-Jul-15 06:33N 40°19' W 073°34'5 4.6
2014-Jul-15 05:33N 40°17' W 073°29'1312.6
2014-Jul-15 04:33N 40°10' W 073°15'1515.5
2014-Jul-15 03:33N 40°03' W 072°57'1615.7
2014-Jul-15 02:33N 39°58' W 072°38'1615.6
2014-Jul-15 01:33N 39°54' W 072°18'1615.9
2014-Jul-15 00:34N 39°50' W 071°58'1515.3
2014-Jul-14 23:34N 39°47' W 071°38'1414.3
2014-Jul-14 22:33N 39°45' W 071°20'1414.1
2014-Jul-14 21:33N 39°43' W 071°02'1514.9
2014-Jul-14 20:33N 39°41' W 070°43'1616.1
2014-Jul-14 19:33N 39°38' W 070°22'1716.6
2014-Jul-14 18:33N 39°36' W 070°01'1716.9
2014-Jul-14 17:33N 39°33' W 069°39'1816.9
2014-Jul-14 16:28N 39°30' W 069°16'17016.7
2014-Jul-14 06:16N 39°24' W 065°35'3419.9
2014-Jul-14 04:33N 39°34' W 064°53'  
Track history (hours):
 
Tides and Currents Weather Stations Pressure Air Temp Water Temp Dewpoint Dewpoint Depression Visibility Wind Speed Wind Dir Waves Ship Positions

Hanjin Madrid

Last reported at 2014-Jul-23 04:33 UTC. Time now 2014-Jul-29 08:47 UTC.
Position N 32°02' W 080°55'.

Length 278.9 m; beam 40.3 m; draft 14 m.

Type: Ship. MMSI: 211424430.

Date/timePositionNaut miles runAvg speedWind from/ knotsBaromVisibWave heightAir tempDewpointWater temp
2014-Jul-23 04:33N 32°02' W 080°55'9 8.8
2014-Jul-23 03:33N 32°05' W 081°05'4 3.4
2014-Jul-23 02:27N 32°08' W 081°08'0 0.0
2014-Jul-23 01:32N 32°08' W 081°08'0 0.0
2014-Jul-23 00:29N 32°08' W 081°08'0 0.0
2014-Jul-22 23:05N 32°08' W 081°08'0 0.0
2014-Jul-22 22:32N 32°08' W 081°08'0 0.0
2014-Jul-22 21:21N 32°08' W 081°08'0 0.0
2014-Jul-22 13:27N 32°08' W 081°08'0 0.0
2014-Jul-22 09:15N 32°08' W 081°08'0 0.0
2014-Jul-22 08:32N 32°08' W 081°08'0 0.0
2014-Jul-22 06:15N 32°08' W 081°08'0 0.0
2014-Jul-22 05:33N 32°08' W 081°08'0 0.0
2014-Jul-22 04:09N 32°08' W 081°08'0 0.0
2014-Jul-22 02:31N 32°08' W 081°08'0 0.0
2014-Jul-22 01:28N 32°08' W 081°08'0 0.0
2014-Jul-21 23:07N 32°08' W 081°08'0 0.0
2014-Jul-21 22:31N 32°08' W 081°08'0 0.0
2014-Jul-21 21:13N 32°08' W 081°08'0 0.0
2014-Jul-21 20:13N 32°08' W 081°08'0 0.5
2014-Jul-21 19:33N 32°07' W 081°08'5 5.3
2014-Jul-21 18:33N 32°05' W 081°03'9 9.1
2014-Jul-21 17:33N 32°02' W 080°52'38210.0
2014-Jul-20 03:27N 36°41' W 075°36'1212.9
2014-Jul-20 02:29N 36°49' W 075°48'1312.8
2014-Jul-20 01:29N 36°57' W 076°00'1515.8
2014-Jul-20 00:33N 36°60' W 076°18'7 7.1
2014-Jul-19 23:33N 36°53' W 076°21'0 0.0
2014-Jul-19 22:29N 36°53' W 076°21'0 0.0
2014-Jul-19 21:17N 36°53' W 076°21'0 0.0
2014-Jul-19 20:26N 36°53' W 076°21'0 0.0
2014-Jul-19 17:05N 36°53' W 076°21'0 0.0
2014-Jul-19 14:23N 36°53' W 076°21'0 0.0
2014-Jul-19 11:23N 36°53' W 076°21'0 0.0
2014-Jul-19 10:33N 36°53' W 076°21'5 5.4
2014-Jul-19 09:33N 36°58' W 076°20'9 9.1
2014-Jul-19 08:33N 36°59' W 076°09'10 9.6
2014-Jul-19 07:33N 36°56' W 075°57'9 9.1
2014-Jul-19 06:33N 36°51' W 075°48'40 2.0
2014-Jul-18 10:33N 37°08' W 075°03'7311.3
2014-Jul-18 04:04N 38°14' W 074°23'913.2
2014-Jul-18 03:23N 38°22' W 074°17'1113.5
2014-Jul-18 02:33N 38°31' W 074°08'1413.9
2014-Jul-18 01:33N 38°43' W 073°60'1413.6
2014-Jul-18 00:34N 38°57' W 073°58'1413.8
2014-Jul-17 23:33N 39°10' W 073°56'1312.9
2014-Jul-17 22:33N 39°23' W 073°54'1313.0
2014-Jul-17 21:33N 39°36' W 073°53'1313.0
2014-Jul-17 20:33N 39°49' W 073°52'1312.9
2014-Jul-17 19:33N 40°02' W 073°50'1313.0
2014-Jul-17 18:33N 40°15' W 073°49'1212.1
2014-Jul-17 17:33N 40°27' W 073°50'1414.2
2014-Jul-17 16:33N 40°37' W 074°03'5 5.0
2014-Jul-17 15:33N 40°39' W 074°09'1 1.4
2014-Jul-17 14:32N 40°41' W 074°09'0 0.0
2014-Jul-17 13:32N 40°41' W 074°09'0 0.0
2014-Jul-17 12:32N 40°41' W 074°09'0 0.0
2014-Jul-17 11:32N 40°41' W 074°09'0 0.0
2014-Jul-17 10:32N 40°41' W 074°09'0 0.0
2014-Jul-17 09:32N 40°41' W 074°09'0 0.0
2014-Jul-17 08:32N 40°41' W 074°09'0 0.0
2014-Jul-17 07:32N 40°41' W 074°09'0 0.0
2014-Jul-17 06:32N 40°41' W 074°09'0 0.0
2014-Jul-17 05:32N 40°41' W 074°09'0 0.0
2014-Jul-17 04:32N 40°41' W 074°09'0 0.0
2014-Jul-17 03:32N 40°41' W 074°09'0 0.0
2014-Jul-17 02:32N 40°41' W 074°09'0 0.0
2014-Jul-17 01:32N 40°41' W 074°09'0 0.0
2014-Jul-17 00:32N 40°41' W 074°09'0 0.0
2014-Jul-16 23:32N 40°41' W 074°09'0 0.0
2014-Jul-16 22:32N 40°41' W 074°09'0 0.0
2014-Jul-16 21:29N 40°41' W 074°09'0 0.0
2014-Jul-16 20:32N 40°41' W 074°09'0 0.0
2014-Jul-16 19:29N 40°41' W 074°09'0 0.0
2014-Jul-16 18:32N 40°41' W 074°09'0 0.0
2014-Jul-16 17:32N 40°41' W 074°09'0 0.0
2014-Jul-16 16:32N 40°41' W 074°09'0 0.0
2014-Jul-16 15:33N 40°41' W 074°09'1 0.6
2014-Jul-16 14:31N 40°40' W 074°09'0 0.0
2014-Jul-16 13:31N 40°40' W 074°09'0 0.0
2014-Jul-16 12:28N 40°40' W 074°09'0 0.0
2014-Jul-16 11:28N 40°40' W 074°09'0 0.0
2014-Jul-16 10:31N 40°40' W 074°09'0 0.0
2014-Jul-16 09:31N 40°40' W 074°09'0 0.0
2014-Jul-16 08:28N 40°40' W 074°09'0 0.0
2014-Jul-16 07:31N 40°40' W 074°09'0 0.0
2014-Jul-16 06:28N 40°40' W 074°09'0 0.0
2014-Jul-16 05:31N 40°40' W 074°09'0 0.0
2014-Jul-16 04:31N 40°40' W 074°09'0 0.0
2014-Jul-16 03:31N 40°40' W 074°09'0 0.0
2014-Jul-16 02:31N 40°40' W 074°09'0 0.0
2014-Jul-16 01:31N 40°40' W 074°09'0 0.0
2014-Jul-16 00:31N 40°40' W 074°09'0 0.0
2014-Jul-15 23:31N 40°40' W 074°09'0 0.0
2014-Jul-15 22:31N 40°40' W 074°09'0 0.0
2014-Jul-15 21:31N 40°40' W 074°09'0 0.0
2014-Jul-15 20:31N 40°40' W 074°09'0 0.0
2014-Jul-15 19:31N 40°40' W 074°09'0 0.0
2014-Jul-15 18:31N 40°40' W 074°09'0 0.0
2014-Jul-15 17:31N 40°40' W 074°09'0 0.0
2014-Jul-15 16:31N 40°40' W 074°09'0 0.0
2014-Jul-15 15:31N 40°40' W 074°09'0 0.0
2014-Jul-15 14:31N 40°40' W 074°09'0 0.0
2014-Jul-15 13:31N 40°40' W 074°09'0 0.0
2014-Jul-15 12:31N 40°40' W 074°09'0 0.0
2014-Jul-15 11:28N 40°40' W 074°09'2 1.8
2014-Jul-15 10:33N 40°39' W 074°08'7 6.9
2014-Jul-15 09:34N 40°34' W 074°02'1212.4
2014-Jul-15 08:33N 40°27' W 073°48'7 6.8
2014-Jul-15 07:34N 40°23' W 073°41'6 6.3
2014-Jul-15 06:33N 40°19' W 073°34'5 4.6
2014-Jul-15 05:33N 40°17' W 073°29'1312.6
2014-Jul-15 04:33N 40°10' W 073°15'1515.5
2014-Jul-15 03:33N 40°03' W 072°57'1615.7
2014-Jul-15 02:33N 39°58' W 072°38'1615.6
2014-Jul-15 01:33N 39°54' W 072°18'1615.9
2014-Jul-15 00:34N 39°50' W 071°58'1515.3
2014-Jul-14 23:34N 39°47' W 071°38'1414.3
2014-Jul-14 22:33N 39°45' W 071°20'1414.1
2014-Jul-14 21:33N 39°43' W 071°02'1514.9
2014-Jul-14 20:33N 39°41' W 070°43'1616.1
2014-Jul-14 19:33N 39°38' W 070°22'1716.6
2014-Jul-14 18:33N 39°36' W 070°01'1716.9
2014-Jul-14 17:33N 39°33' W 069°39'1816.9
2014-Jul-14 16:28N 39°30' W 069°16'17016.7
2014-Jul-14 06:16N 39°24' W 065°35'3419.9
2014-Jul-14 04:33N 39°34' W 064°53'  

Dump ship's entire track history